sensor_id;sensor_type;location;lat;lon;timestamp;P1;durP1;ratioP1;P2;durP2;ratioP2
18082;SDS011;9168;51.194;6.840;2023-01-06T00:00:35;7.32;;;2.03;;
18082;SDS011;9168;51.194;6.840;2023-01-06T00:03:03;13.77;;;2.78;;
18082;SDS011;9168;51.194;6.840;2023-01-06T00:05:31;12.45;;;2.22;;
18082;SDS011;9168;51.194;6.840;2023-01-06T00:07:57;9.90;;;2.78;;
18082;SDS011;9168;51.194;6.840;2023-01-06T00:10:24;10.88;;;2.30;;
18082;SDS011;9168;51.194;6.840;2023-01-06T00:12:52;9.32;;;2.38;;
18082;SDS011;9168;51.194;6.840;2023-01-06T00:15:20;11.20;;;2.75;;
18082;SDS011;9168;51.194;6.840;2023-01-06T00:17:47;12.15;;;2.28;;
18082;SDS011;9168;51.194;6.840;2023-01-06T00:20:14;8.57;;;1.70;;
18082;SDS011;9168;51.194;6.840;2023-01-06T00:22:41;7.35;;;2.00;;
18082;SDS011;9168;51.194;6.840;2023-01-06T00:25:08;10.25;;;2.20;;
18082;SDS011;9168;51.194;6.840;2023-01-06T00:27:36;8.43;;;1.60;;
18082;SDS011;9168;51.194;6.840;2023-01-06T00:30:03;6.95;;;1.95;;
18082;SDS011;9168;51.194;6.840;2023-01-06T00:32:33;10.63;;;2.00;;
18082;SDS011;9168;51.194;6.840;2023-01-06T00:35:00;6.45;;;1.48;;
18082;SDS011;9168;51.194;6.840;2023-01-06T00:37:27;9.05;;;2.03;;
18082;SDS011;9168;51.194;6.840;2023-01-06T00:39:54;4.95;;;1.75;;
18082;SDS011;9168;51.194;6.840;2023-01-06T00:42:21;11.45;;;1.90;;
18082;SDS011;9168;51.194;6.840;2023-01-06T00:44:48;11.30;;;2.25;;
18082;SDS011;9168;51.194;6.840;2023-01-06T00:47:15;6.15;;;1.65;;
18082;SDS011;9168;51.194;6.840;2023-01-06T00:49:44;4.00;;;1.65;;
18082;SDS011;9168;51.194;6.840;2023-01-06T00:52:11;9.68;;;2.00;;
18082;SDS011;9168;51.194;6.840;2023-01-06T00:54:38;11.30;;;1.90;;
18082;SDS011;9168;51.194;6.840;2023-01-06T00:57:05;5.97;;;1.67;;
18082;SDS011;9168;51.194;6.840;2023-01-06T00:59:32;8.27;;;2.20;;
18082;SDS011;9168;51.194;6.840;2023-01-06T01:01:59;7.57;;;1.60;;
18082;SDS011;9168;51.194;6.840;2023-01-06T01:04:27;9.85;;;1.88;;
18082;SDS011;9168;51.194;6.840;2023-01-06T01:06:55;9.30;;;1.90;;
18082;SDS011;9168;51.194;6.840;2023-01-06T01:09:23;7.68;;;1.80;;
18082;SDS011;9168;51.194;6.840;2023-01-06T01:11:51;9.48;;;1.92;;
18082;SDS011;9168;51.194;6.840;2023-01-06T01:14:37;10.02;;;1.90;;
18082;SDS011;9168;51.194;6.840;2023-01-06T01:17:06;8.98;;;2.40;;
18082;SDS011;9168;51.194;6.840;2023-01-06T01:19:35;8.00;;;1.80;;
18082;SDS011;9168;51.194;6.840;2023-01-06T01:22:03;11.40;;;1.60;;
18082;SDS011;9168;51.194;6.840;2023-01-06T01:24:31;5.90;;;1.75;;
18082;SDS011;9168;51.194;6.840;2023-01-06T01:26:58;6.30;;;2.20;;
18082;SDS011;9168;51.194;6.840;2023-01-06T01:29:25;6.32;;;1.90;;
18082;SDS011;9168;51.194;6.840;2023-01-06T01:31:52;9.45;;;1.63;;
18082;SDS011;9168;51.194;6.840;2023-01-06T01:34:19;11.07;;;2.38;;
18082;SDS011;9168;51.194;6.840;2023-01-06T01:36:47;5.85;;;1.70;;
18082;SDS011;9168;51.194;6.840;2023-01-06T01:39:16;7.32;;;1.85;;
18082;SDS011;9168;51.194;6.840;2023-01-06T01:41:44;11.90;;;1.75;;
18082;SDS011;9168;51.194;6.840;2023-01-06T01:47:19;12.38;;;2.00;;
18082;SDS011;9168;51.194;6.840;2023-01-06T01:49:56;7.82;;;2.00;;
18082;SDS011;9168;51.194;6.840;2023-01-06T01:52:26;9.27;;;1.80;;
18082;SDS011;9168;51.194;6.840;2023-01-06T01:54:55;11.10;;;1.83;;
18082;SDS011;9168;51.194;6.840;2023-01-06T01:57:26;4.82;;;1.40;;
18082;SDS011;9168;51.194;6.840;2023-01-06T01:59:57;8.77;;;1.65;;
18082;SDS011;9168;51.194;6.840;2023-01-06T02:02:25;6.75;;;1.52;;
18082;SDS011;9168;51.194;6.840;2023-01-06T02:04:56;5.88;;;1.38;;
18082;SDS011;9168;51.194;6.840;2023-01-06T02:07:24;5.55;;;1.58;;
18082;SDS011;9168;51.194;6.840;2023-01-06T02:09:53;5.72;;;1.40;;
18082;SDS011;9168;51.194;6.840;2023-01-06T02:12:26;7.00;;;1.67;;
18082;SDS011;9168;51.194;6.840;2023-01-06T02:14:53;9.65;;;1.83;;
18082;SDS011;9168;51.194;6.840;2023-01-06T02:17:32;11.18;;;2.05;;
18082;SDS011;9168;51.194;6.840;2023-01-06T02:20:22;8.90;;;1.42;;
18082;SDS011;9168;51.194;6.840;2023-01-06T02:26:25;5.10;;;1.55;;
18082;SDS011;9168;51.194;6.840;2023-01-06T02:32:22;7.95;;;1.92;;
18082;SDS011;9168;51.194;6.840;2023-01-06T02:34:58;11.63;;;1.88;;
18082;SDS011;9168;51.194;6.840;2023-01-06T02:37:38;5.93;;;1.58;;
18082;SDS011;9168;51.194;6.840;2023-01-06T02:40:15;10.77;;;1.50;;
18082;SDS011;9168;51.194;6.840;2023-01-06T02:42:53;8.77;;;1.52;;
18082;SDS011;9168;51.194;6.840;2023-01-06T02:45:31;11.27;;;1.70;;
18082;SDS011;9168;51.194;6.840;2023-01-06T02:48:10;9.30;;;1.73;;
18082;SDS011;9168;51.194;6.840;2023-01-06T02:50:43;11.70;;;1.50;;
18082;SDS011;9168;51.194;6.840;2023-01-06T02:53:16;11.05;;;1.80;;
18082;SDS011;9168;51.194;6.840;2023-01-06T02:55:50;8.95;;;2.22;;
18082;SDS011;9168;51.194;6.840;2023-01-06T02:58:21;7.07;;;1.30;;
18082;SDS011;9168;51.194;6.840;2023-01-06T03:00:53;5.43;;;1.30;;
18082;SDS011;9168;51.194;6.840;2023-01-06T03:03:27;8.48;;;1.45;;
18082;SDS011;9168;51.194;6.840;2023-01-06T03:05:58;12.05;;;1.85;;
18082;SDS011;9168;51.194;6.840;2023-01-06T03:08:29;4.82;;;1.30;;
18082;SDS011;9168;51.194;6.840;2023-01-06T03:10:58;9.27;;;1.45;;
18082;SDS011;9168;51.194;6.840;2023-01-06T03:13:26;8.45;;;1.80;;
18082;SDS011;9168;51.194;6.840;2023-01-06T03:16:00;3.55;;;1.20;;
18082;SDS011;9168;51.194;6.840;2023-01-06T03:18:29;5.22;;;1.55;;
18082;SDS011;9168;51.194;6.840;2023-01-06T03:20:58;5.20;;;1.35;;
18082;SDS011;9168;51.194;6.840;2023-01-06T03:23:28;9.07;;;1.50;;
18082;SDS011;9168;51.194;6.840;2023-01-06T03:25:55;8.85;;;1.63;;
18082;SDS011;9168;51.194;6.840;2023-01-06T03:28:22;5.80;;;1.30;;
18082;SDS011;9168;51.194;6.840;2023-01-06T03:30:51;8.65;;;1.33;;
18082;SDS011;9168;51.194;6.840;2023-01-06T03:33:26;6.80;;;1.55;;
18082;SDS011;9168;51.194;6.840;2023-01-06T03:36:01;9.93;;;1.50;;
18082;SDS011;9168;51.194;6.840;2023-01-06T03:38:44;11.23;;;1.55;;
18082;SDS011;9168;51.194;6.840;2023-01-06T03:41:21;10.00;;;1.50;;
18082;SDS011;9168;51.194;6.840;2023-01-06T03:44:17;5.60;;;1.20;;
18082;SDS011;9168;51.194;6.840;2023-01-06T03:46:51;7.60;;;1.13;;
18082;SDS011;9168;51.194;6.840;2023-01-06T03:49:27;8.27;;;1.67;;
18082;SDS011;9168;51.194;6.840;2023-01-06T03:51:57;7.85;;;1.40;;
18082;SDS011;9168;51.194;6.840;2023-01-06T03:54:33;9.48;;;1.50;;
18082;SDS011;9168;51.194;6.840;2023-01-06T03:57:06;10.48;;;1.40;;
18082;SDS011;9168;51.194;6.840;2023-01-06T03:59:37;7.32;;;1.30;;
18082;SDS011;9168;51.194;6.840;2023-01-06T04:02:08;4.05;;;1.30;;
18082;SDS011;9168;51.194;6.840;2023-01-06T04:04:36;4.72;;;1.10;;
18082;SDS011;9168;51.194;6.840;2023-01-06T04:07:03;7.78;;;1.00;;
18082;SDS011;9168;51.194;6.840;2023-01-06T04:09:31;10.75;;;1.98;;
18082;SDS011;9168;51.194;6.840;2023-01-06T04:11:57;5.15;;;1.35;;
18082;SDS011;9168;51.194;6.840;2023-01-06T04:14:42;6.68;;;1.63;;
18082;SDS011;9168;51.194;6.840;2023-01-06T04:17:09;8.50;;;1.20;;
18082;SDS011;9168;51.194;6.840;2023-01-06T04:19:37;11.40;;;1.67;;
18082;SDS011;9168;51.194;6.840;2023-01-06T04:22:04;8.38;;;1.20;;
18082;SDS011;9168;51.194;6.840;2023-01-06T04:24:30;8.57;;;1.40;;
18082;SDS011;9168;51.194;6.840;2023-01-06T04:26:57;7.60;;;1.73;;
18082;SDS011;9168;51.194;6.840;2023-01-06T04:29:24;6.63;;;1.10;;
18082;SDS011;9168;51.194;6.840;2023-01-06T04:31:51;11.27;;;2.05;;
18082;SDS011;9168;51.194;6.840;2023-01-06T04:34:18;9.73;;;1.58;;
18082;SDS011;9168;51.194;6.840;2023-01-06T04:36:46;8.52;;;1.45;;
18082;SDS011;9168;51.194;6.840;2023-01-06T04:39:13;11.55;;;1.63;;
18082;SDS011;9168;51.194;6.840;2023-01-06T04:41:40;3.85;;;1.00;;
18082;SDS011;9168;51.194;6.840;2023-01-06T04:44:07;14.13;;;1.52;;
18082;SDS011;9168;51.194;6.840;2023-01-06T04:46:33;8.52;;;1.15;;
18082;SDS011;9168;51.194;6.840;2023-01-06T04:49:00;7.28;;;1.38;;
18082;SDS011;9168;51.194;6.840;2023-01-06T04:51:27;13.05;;;1.58;;
18082;SDS011;9168;51.194;6.840;2023-01-06T04:53:55;11.57;;;1.40;;
18082;SDS011;9168;51.194;6.840;2023-01-06T04:56:22;4.18;;;1.10;;
18082;SDS011;9168;51.194;6.840;2023-01-06T04:58:51;6.78;;;0.95;;
18082;SDS011;9168;51.194;6.840;2023-01-06T05:01:19;7.65;;;1.45;;
18082;SDS011;9168;51.194;6.840;2023-01-06T05:03:47;7.18;;;0.90;;
18082;SDS011;9168;51.194;6.840;2023-01-06T05:06:14;9.38;;;1.52;;
18082;SDS011;9168;51.194;6.840;2023-01-06T05:08:43;6.03;;;1.30;;
18082;SDS011;9168;51.194;6.840;2023-01-06T05:11:12;2.58;;;0.77;;
18082;SDS011;9168;51.194;6.840;2023-01-06T05:13:40;5.45;;;1.08;;
18082;SDS011;9168;51.194;6.840;2023-01-06T05:16:07;5.80;;;1.33;;
18082;SDS011;9168;51.194;6.840;2023-01-06T05:18:35;5.75;;;0.95;;
18082;SDS011;9168;51.194;6.840;2023-01-06T05:21:02;6.50;;;1.40;;
18082;SDS011;9168;51.194;6.840;2023-01-06T05:23:29;7.53;;;1.10;;
18082;SDS011;9168;51.194;6.840;2023-01-06T05:25:56;3.50;;;1.20;;
18082;SDS011;9168;51.194;6.840;2023-01-06T05:28:24;4.45;;;1.02;;
18082;SDS011;9168;51.194;6.840;2023-01-06T05:30:51;4.03;;;0.80;;
18082;SDS011;9168;51.194;6.840;2023-01-06T05:33:18;7.53;;;1.30;;
18082;SDS011;9168;51.194;6.840;2023-01-06T05:35:45;12.70;;;1.08;;
18082;SDS011;9168;51.194;6.840;2023-01-06T05:38:12;5.97;;;1.00;;
18082;SDS011;9168;51.194;6.840;2023-01-06T05:40:39;7.95;;;1.10;;
18082;SDS011;9168;51.194;6.840;2023-01-06T05:43:06;4.82;;;1.23;;
18082;SDS011;9168;51.194;6.840;2023-01-06T05:45:35;5.57;;;0.82;;
18082;SDS011;9168;51.194;6.840;2023-01-06T05:48:02;4.43;;;1.15;;
18082;SDS011;9168;51.194;6.840;2023-01-06T05:50:29;4.78;;;1.10;;
18082;SDS011;9168;51.194;6.840;2023-01-06T05:52:56;2.80;;;0.82;;
18082;SDS011;9168;51.194;6.840;2023-01-06T05:55:22;6.38;;;1.20;;
18082;SDS011;9168;51.194;6.840;2023-01-06T05:57:49;4.70;;;1.40;;
18082;SDS011;9168;51.194;6.840;2023-01-06T06:00:16;4.20;;;1.45;;
18082;SDS011;9168;51.194;6.840;2023-01-06T06:02:45;11.45;;;1.83;;
18082;SDS011;9168;51.194;6.840;2023-01-06T06:05:12;5.95;;;1.33;;
18082;SDS011;9168;51.194;6.840;2023-01-06T06:07:39;4.30;;;1.23;;
18082;SDS011;9168;51.194;6.840;2023-01-06T06:10:06;4.53;;;1.30;;
18082;SDS011;9168;51.194;6.840;2023-01-06T06:12:33;9.05;;;1.50;;
18082;SDS011;9168;51.194;6.840;2023-01-06T06:15:00;5.57;;;1.30;;
18082;SDS011;9168;51.194;6.840;2023-01-06T06:17:27;6.72;;;1.30;;
18082;SDS011;9168;51.194;6.840;2023-01-06T06:19:57;3.65;;;1.10;;
18082;SDS011;9168;51.194;6.840;2023-01-06T06:22:24;7.85;;;1.30;;
18082;SDS011;9168;51.194;6.840;2023-01-06T06:24:50;4.93;;;1.17;;
18082;SDS011;9168;51.194;6.840;2023-01-06T06:27:17;5.35;;;1.40;;
18082;SDS011;9168;51.194;6.840;2023-01-06T06:29:44;5.43;;;1.40;;
18082;SDS011;9168;51.194;6.840;2023-01-06T06:32:11;5.63;;;1.10;;
18082;SDS011;9168;51.194;6.840;2023-01-06T06:34:38;3.85;;;0.82;;
18082;SDS011;9168;51.194;6.840;2023-01-06T06:37:06;3.70;;;0.90;;
18082;SDS011;9168;51.194;6.840;2023-01-06T06:39:33;4.30;;;0.88;;
18082;SDS011;9168;51.194;6.840;2023-01-06T06:42:00;4.13;;;0.90;;
18082;SDS011;9168;51.194;6.840;2023-01-06T06:44:27;3.97;;;0.73;;
18082;SDS011;9168;51.194;6.840;2023-01-06T06:46:53;3.30;;;0.70;;
18082;SDS011;9168;51.194;6.840;2023-01-06T06:49:20;5.18;;;1.40;;
18082;SDS011;9168;51.194;6.840;2023-01-06T06:51:47;2.38;;;0.90;;
18082;SDS011;9168;51.194;6.840;2023-01-06T06:54:15;7.82;;;1.10;;
18082;SDS011;9168;51.194;6.840;2023-01-06T06:56:42;4.00;;;1.17;;
18082;SDS011;9168;51.194;6.840;2023-01-06T06:59:09;4.03;;;0.80;;
18082;SDS011;9168;51.194;6.840;2023-01-06T07:01:36;6.28;;;0.90;;
18082;SDS011;9168;51.194;6.840;2023-01-06T07:04:03;7.60;;;0.95;;
18082;SDS011;9168;51.194;6.840;2023-01-06T07:06:30;6.20;;;0.90;;
18082;SDS011;9168;51.194;6.840;2023-01-06T07:08:57;3.80;;;0.80;;
18082;SDS011;9168;51.194;6.840;2023-01-06T07:11:25;3.60;;;0.70;;
18082;SDS011;9168;51.194;6.840;2023-01-06T07:13:52;10.60;;;1.08;;
18082;SDS011;9168;51.194;6.840;2023-01-06T07:16:19;4.55;;;1.00;;
18082;SDS011;9168;51.194;6.840;2023-01-06T07:18:50;5.63;;;1.05;;
18082;SDS011;9168;51.194;6.840;2023-01-06T07:21:18;2.75;;;0.98;;
18082;SDS011;9168;51.194;6.840;2023-01-06T07:23:45;3.03;;;0.70;;
18082;SDS011;9168;51.194;6.840;2023-01-06T07:26:11;4.75;;;1.20;;
18082;SDS011;9168;51.194;6.840;2023-01-06T07:28:41;5.93;;;0.80;;
18082;SDS011;9168;51.194;6.840;2023-01-06T07:31:08;7.70;;;1.05;;
18082;SDS011;9168;51.194;6.840;2023-01-06T07:33:35;4.57;;;0.90;;
18082;SDS011;9168;51.194;6.840;2023-01-06T07:36:01;4.43;;;0.95;;
18082;SDS011;9168;51.194;6.840;2023-01-06T07:38:29;4.43;;;0.80;;
18082;SDS011;9168;51.194;6.840;2023-01-06T07:40:57;6.40;;;1.30;;
18082;SDS011;9168;51.194;6.840;2023-01-06T07:43:25;5.22;;;0.82;;
18082;SDS011;9168;51.194;6.840;2023-01-06T07:45:53;5.55;;;0.88;;
18082;SDS011;9168;51.194;6.840;2023-01-06T07:48:20;1.60;;;0.52;;
18082;SDS011;9168;51.194;6.840;2023-01-06T07:50:47;2.65;;;0.90;;
18082;SDS011;9168;51.194;6.840;2023-01-06T07:53:14;2.97;;;0.90;;
18082;SDS011;9168;51.194;6.840;2023-01-06T07:55:41;3.05;;;0.88;;
18082;SDS011;9168;51.194;6.840;2023-01-06T07:58:08;5.78;;;1.00;;
18082;SDS011;9168;51.194;6.840;2023-01-06T08:00:35;4.95;;;0.90;;
18082;SDS011;9168;51.194;6.840;2023-01-06T08:03:04;2.78;;;0.75;;
18082;SDS011;9168;51.194;6.840;2023-01-06T08:05:35;4.60;;;0.80;;
18082;SDS011;9168;51.194;6.840;2023-01-06T08:08:02;5.88;;;1.08;;
18082;SDS011;9168;51.194;6.840;2023-01-06T08:10:29;5.85;;;0.95;;
18082;SDS011;9168;51.194;6.840;2023-01-06T08:12:56;5.28;;;1.00;;
18082;SDS011;9168;51.194;6.840;2023-01-06T08:15:23;1.85;;;0.77;;
18082;SDS011;9168;51.194;6.840;2023-01-06T08:17:51;3.22;;;0.90;;
18082;SDS011;9168;51.194;6.840;2023-01-06T08:20:19;3.75;;;0.93;;
18082;SDS011;9168;51.194;6.840;2023-01-06T08:22:47;5.63;;;1.00;;
18082;SDS011;9168;51.194;6.840;2023-01-06T08:25:13;3.53;;;0.98;;
18082;SDS011;9168;51.194;6.840;2023-01-06T08:27:41;1.85;;;1.13;;
18082;SDS011;9168;51.194;6.840;2023-01-06T08:30:08;6.22;;;1.23;;
18082;SDS011;9168;51.194;6.840;2023-01-06T08:32:35;9.38;;;1.33;;
18082;SDS011;9168;51.194;6.840;2023-01-06T08:35:02;5.43;;;1.30;;
18082;SDS011;9168;51.194;6.840;2023-01-06T08:37:30;7.13;;;1.42;;
18082;SDS011;9168;51.194;6.840;2023-01-06T08:39:57;4.35;;;0.90;;
18082;SDS011;9168;51.194;6.840;2023-01-06T08:42:24;6.43;;;1.30;;
18082;SDS011;9168;51.194;6.840;2023-01-06T08:44:51;6.32;;;0.93;;
18082;SDS011;9168;51.194;6.840;2023-01-06T08:47:18;1.67;;;0.60;;
18082;SDS011;9168;51.194;6.840;2023-01-06T08:49:45;2.35;;;0.85;;
18082;SDS011;9168;51.194;6.840;2023-01-06T08:52:12;1.88;;;0.80;;
18082;SDS011;9168;51.194;6.840;2023-01-06T08:54:40;2.85;;;0.60;;
18082;SDS011;9168;51.194;6.840;2023-01-06T08:57:07;2.53;;;0.65;;
18082;SDS011;9168;51.194;6.840;2023-01-06T08:59:35;0.95;;;0.60;;
18082;SDS011;9168;51.194;6.840;2023-01-06T09:02:02;7.10;;;0.73;;
18082;SDS011;9168;51.194;6.840;2023-01-06T09:04:28;3.00;;;0.70;;
18082;SDS011;9168;51.194;6.840;2023-01-06T09:06:55;3.65;;;0.68;;
18082;SDS011;9168;51.194;6.840;2023-01-06T09:09:22;2.83;;;0.77;;
18082;SDS011;9168;51.194;6.840;2023-01-06T09:11:51;2.50;;;0.60;;
18082;SDS011;9168;51.194;6.840;2023-01-06T09:14:18;1.20;;;0.60;;
18082;SDS011;9168;51.194;6.840;2023-01-06T09:16:44;1.27;;;0.45;;
18082;SDS011;9168;51.194;6.840;2023-01-06T09:19:12;2.83;;;0.75;;
18082;SDS011;9168;51.194;6.840;2023-01-06T09:21:40;1.55;;;0.60;;
18082;SDS011;9168;51.194;6.840;2023-01-06T09:24:08;3.08;;;0.73;;
18082;SDS011;9168;51.194;6.840;2023-01-06T09:26:38;1.20;;;0.60;;
18082;SDS011;9168;51.194;6.840;2023-01-06T09:29:06;3.30;;;0.80;;
18082;SDS011;9168;51.194;6.840;2023-01-06T09:31:33;4.65;;;0.80;;
18082;SDS011;9168;51.194;6.840;2023-01-06T09:34:00;4.45;;;0.77;;
18082;SDS011;9168;51.194;6.840;2023-01-06T09:36:27;4.82;;;0.63;;
18082;SDS011;9168;51.194;6.840;2023-01-06T09:38:54;2.65;;;0.77;;
18082;SDS011;9168;51.194;6.840;2023-01-06T09:44:16;2.95;;;0.50;;
18082;SDS011;9168;51.194;6.840;2023-01-06T09:46:47;1.38;;;0.65;;
18082;SDS011;9168;51.194;6.840;2023-01-06T09:49:19;1.05;;;0.50;;
18082;SDS011;9168;51.194;6.840;2023-01-06T09:51:51;3.58;;;0.50;;
18082;SDS011;9168;51.194;6.840;2023-01-06T09:54:20;1.67;;;0.50;;
18082;SDS011;9168;51.194;6.840;2023-01-06T09:56:50;3.15;;;0.70;;
18082;SDS011;9168;51.194;6.840;2023-01-06T09:59:23;2.42;;;0.70;;
18082;SDS011;9168;51.194;6.840;2023-01-06T10:01:56;0.55;;;0.40;;
18082;SDS011;9168;51.194;6.840;2023-01-06T10:04:27;3.20;;;0.70;;
18082;SDS011;9168;51.194;6.840;2023-01-06T10:06:58;1.27;;;0.50;;
18082;SDS011;9168;51.194;6.840;2023-01-06T10:09:32;1.52;;;0.50;;
18082;SDS011;9168;51.194;6.840;2023-01-06T10:12:10;3.55;;;0.70;;
18082;SDS011;9168;51.194;6.840;2023-01-06T10:14:51;3.70;;;0.65;;
18082;SDS011;9168;51.194;6.840;2023-01-06T10:17:42;0.73;;;0.52;;
18082;SDS011;9168;51.194;6.840;2023-01-06T10:20:33;4.65;;;0.75;;
18082;SDS011;9168;51.194;6.840;2023-01-06T10:23:23;3.63;;;0.68;;
18082;SDS011;9168;51.194;6.840;2023-01-06T10:26:10;1.45;;;0.60;;
18082;SDS011;9168;51.194;6.840;2023-01-06T10:28:39;1.15;;;0.52;;
18082;SDS011;9168;51.194;6.840;2023-01-06T10:31:11;1.77;;;0.63;;
18082;SDS011;9168;51.194;6.840;2023-01-06T10:33:42;4.00;;;1.38;;
18082;SDS011;9168;51.194;6.840;2023-01-06T10:36:12;4.05;;;0.88;;
18082;SDS011;9168;51.194;6.840;2023-01-06T10:38:42;0.63;;;0.60;;
18082;SDS011;9168;51.194;6.840;2023-01-06T10:41:13;4.30;;;1.00;;
18082;SDS011;9168;51.194;6.840;2023-01-06T10:43:46;3.70;;;0.93;;
18082;SDS011;9168;51.194;6.840;2023-01-06T10:46:14;4.22;;;0.70;;
18082;SDS011;9168;51.194;6.840;2023-01-06T10:48:41;4.65;;;1.08;;
18082;SDS011;9168;51.194;6.840;2023-01-06T10:51:19;2.97;;;0.82;;
18082;SDS011;9168;51.194;6.840;2023-01-06T10:54:00;2.08;;;0.80;;
18082;SDS011;9168;51.194;6.840;2023-01-06T10:56:32;0.80;;;0.63;;
18082;SDS011;9168;51.194;6.840;2023-01-06T10:59:04;1.75;;;0.90;;
18082;SDS011;9168;51.194;6.840;2023-01-06T11:01:33;1.33;;;0.68;;
18082;SDS011;9168;51.194;6.840;2023-01-06T11:04:03;1.17;;;0.80;;
18082;SDS011;9168;51.194;6.840;2023-01-06T11:06:36;15.60;;;1.75;;
18082;SDS011;9168;51.194;6.840;2023-01-06T11:09:05;1.23;;;0.60;;
18082;SDS011;9168;51.194;6.840;2023-01-06T11:11:43;2.13;;;0.90;;
18082;SDS011;9168;51.194;6.840;2023-01-06T11:14:14;4.05;;;0.88;;
18082;SDS011;9168;51.194;6.840;2023-01-06T11:16:52;1.88;;;1.08;;
18082;SDS011;9168;51.194;6.840;2023-01-06T11:19:32;1.42;;;0.63;;
18082;SDS011;9168;51.194;6.840;2023-01-06T11:22:03;1.83;;;0.80;;
18082;SDS011;9168;51.194;6.840;2023-01-06T11:24:31;1.75;;;0.88;;
18082;SDS011;9168;51.194;6.840;2023-01-06T11:26:58;6.50;;;0.95;;
18082;SDS011;9168;51.194;6.840;2023-01-06T11:29:30;3.22;;;0.93;;
18082;SDS011;9168;51.194;6.840;2023-01-06T11:32:02;2.63;;;0.82;;
18082;SDS011;9168;51.194;6.840;2023-01-06T11:34:30;2.90;;;0.80;;
18082;SDS011;9168;51.194;6.840;2023-01-06T11:36:58;3.47;;;0.90;;
18082;SDS011;9168;51.194;6.840;2023-01-06T11:39:26;3.33;;;1.00;;
18082;SDS011;9168;51.194;6.840;2023-01-06T11:41:56;1.80;;;0.85;;
18082;SDS011;9168;51.194;6.840;2023-01-06T11:44:30;2.33;;;0.98;;
18082;SDS011;9168;51.194;6.840;2023-01-06T11:46:59;2.20;;;0.88;;
18082;SDS011;9168;51.194;6.840;2023-01-06T11:49:31;3.03;;;0.95;;
18082;SDS011;9168;51.194;6.840;2023-01-06T11:52:02;5.28;;;0.90;;
18082;SDS011;9168;51.194;6.840;2023-01-06T11:54:32;1.25;;;0.60;;
18082;SDS011;9168;51.194;6.840;2023-01-06T11:57:11;1.70;;;0.73;;
18082;SDS011;9168;51.194;6.840;2023-01-06T11:59:47;2.45;;;0.70;;
18082;SDS011;9168;51.194;6.840;2023-01-06T12:02:28;5.85;;;0.90;;
18082;SDS011;9168;51.194;6.840;2023-01-06T12:05:02;1.33;;;0.82;;
18082;SDS011;9168;51.194;6.840;2023-01-06T12:07:37;2.72;;;0.93;;
18082;SDS011;9168;51.194;6.840;2023-01-06T12:10:08;4.88;;;0.90;;
18082;SDS011;9168;51.194;6.840;2023-01-06T12:12:39;4.55;;;0.88;;
18082;SDS011;9168;51.194;6.840;2023-01-06T12:15:09;3.47;;;0.90;;
18082;SDS011;9168;51.194;6.840;2023-01-06T12:17:41;3.40;;;0.93;;
18082;SDS011;9168;51.194;6.840;2023-01-06T12:20:15;2.78;;;1.00;;
18082;SDS011;9168;51.194;6.840;2023-01-06T12:22:46;3.72;;;1.00;;
18082;SDS011;9168;51.194;6.840;2023-01-06T12:25:16;2.22;;;1.10;;
18082;SDS011;9168;51.194;6.840;2023-01-06T12:27:47;5.07;;;1.15;;
18082;SDS011;9168;51.194;6.840;2023-01-06T12:30:20;2.45;;;0.90;;
18082;SDS011;9168;51.194;6.840;2023-01-06T12:32:57;3.42;;;0.90;;
18082;SDS011;9168;51.194;6.840;2023-01-06T12:35:29;2.85;;;0.73;;
18082;SDS011;9168;51.194;6.840;2023-01-06T12:38:00;2.15;;;0.90;;
18082;SDS011;9168;51.194;6.840;2023-01-06T12:40:34;3.30;;;0.90;;
18082;SDS011;9168;51.194;6.840;2023-01-06T12:43:10;2.53;;;0.60;;
18082;SDS011;9168;51.194;6.840;2023-01-06T12:45:41;2.33;;;0.80;;
18082;SDS011;9168;51.194;6.840;2023-01-06T12:48:17;1.77;;;0.60;;
18082;SDS011;9168;51.194;6.840;2023-01-06T12:50:52;2.78;;;0.70;;
18082;SDS011;9168;51.194;6.840;2023-01-06T12:53:25;2.70;;;0.90;;
18082;SDS011;9168;51.194;6.840;2023-01-06T12:55:57;2.08;;;1.00;;
18082;SDS011;9168;51.194;6.840;2023-01-06T12:58:35;3.25;;;0.80;;
18082;SDS011;9168;51.194;6.840;2023-01-06T13:01:13;2.83;;;0.80;;
18082;SDS011;9168;51.194;6.840;2023-01-06T13:04:01;4.55;;;0.80;;
18082;SDS011;9168;51.194;6.840;2023-01-06T13:06:51;1.83;;;0.80;;
18082;SDS011;9168;51.194;6.840;2023-01-06T13:09:34;2.40;;;0.98;;
18082;SDS011;9168;51.194;6.840;2023-01-06T13:12:20;3.25;;;1.10;;
18082;SDS011;9168;51.194;6.840;2023-01-06T13:15:08;2.35;;;0.90;;
18082;SDS011;9168;51.194;6.840;2023-01-06T13:17:45;1.75;;;0.82;;
18082;SDS011;9168;51.194;6.840;2023-01-06T13:20:19;2.65;;;1.13;;
18082;SDS011;9168;51.194;6.840;2023-01-06T13:22:53;4.35;;;1.10;;
18082;SDS011;9168;51.194;6.840;2023-01-06T13:25:32;3.50;;;1.38;;
18082;SDS011;9168;51.194;6.840;2023-01-06T13:28:30;4.82;;;1.48;;
18082;SDS011;9168;51.194;6.840;2023-01-06T13:31:11;8.18;;;1.80;;
18082;SDS011;9168;51.194;6.840;2023-01-06T13:36:52;4.53;;;1.27;;
18082;SDS011;9168;51.194;6.840;2023-01-06T13:39:37;2.92;;;1.60;;
18082;SDS011;9168;51.194;6.840;2023-01-06T13:42:09;1.98;;;1.20;;
18082;SDS011;9168;51.194;6.840;2023-01-06T13:44:40;2.78;;;1.42;;
18082;SDS011;9168;51.194;6.840;2023-01-06T13:47:10;3.05;;;1.00;;
18082;SDS011;9168;51.194;6.840;2023-01-06T13:49:40;2.53;;;1.00;;
18082;SDS011;9168;51.194;6.840;2023-01-06T13:52:10;3.20;;;1.17;;
18082;SDS011;9168;51.194;6.840;2023-01-06T13:54:57;3.75;;;1.00;;
18082;SDS011;9168;51.194;6.840;2023-01-06T13:57:33;3.50;;;1.20;;
18082;SDS011;9168;51.194;6.840;2023-01-06T14:02:58;3.05;;;1.30;;
18082;SDS011;9168;51.194;6.840;2023-01-06T14:05:48;7.72;;;1.60;;
18082;SDS011;9168;51.194;6.840;2023-01-06T14:08:18;5.60;;;2.20;;
18082;SDS011;9168;51.194;6.840;2023-01-06T14:10:46;3.47;;;1.35;;
18082;SDS011;9168;51.194;6.840;2023-01-06T14:13:26;4.10;;;2.17;;
18082;SDS011;9168;51.194;6.840;2023-01-06T14:15:58;3.28;;;1.60;;
18082;SDS011;9168;51.194;6.840;2023-01-06T14:18:29;3.35;;;1.30;;
18082;SDS011;9168;51.194;6.840;2023-01-06T14:21:05;3.33;;;1.08;;
18082;SDS011;9168;51.194;6.840;2023-01-06T14:23:51;6.75;;;1.10;;
18082;SDS011;9168;51.194;6.840;2023-01-06T14:26:21;3.20;;;1.00;;
18082;SDS011;9168;51.194;6.840;2023-01-06T14:35:28;2.03;;;0.98;;
18082;SDS011;9168;51.194;6.840;2023-01-06T14:37:58;8.10;;;1.05;;
18082;SDS011;9168;51.194;6.840;2023-01-06T14:40:30;2.08;;;1.10;;
18082;SDS011;9168;51.194;6.840;2023-01-06T14:43:02;3.78;;;1.40;;
18082;SDS011;9168;51.194;6.840;2023-01-06T14:45:33;3.53;;;1.67;;
18082;SDS011;9168;51.194;6.840;2023-01-06T14:48:04;7.22;;;1.75;;
18082;SDS011;9168;51.194;6.840;2023-01-06T14:50:35;3.85;;;1.90;;
18082;SDS011;9168;51.194;6.840;2023-01-06T14:53:08;2.72;;;1.80;;
18082;SDS011;9168;51.194;6.840;2023-01-06T14:55:44;5.10;;;2.00;;
18082;SDS011;9168;51.194;6.840;2023-01-06T14:58:27;4.22;;;1.42;;
18082;SDS011;9168;51.194;6.840;2023-01-06T15:00:54;4.68;;;1.70;;
18082;SDS011;9168;51.194;6.840;2023-01-06T15:03:22;5.15;;;1.90;;
18082;SDS011;9168;51.194;6.840;2023-01-06T15:05:51;5.10;;;1.83;;
18082;SDS011;9168;51.194;6.840;2023-01-06T15:08:35;3.38;;;1.70;;
18082;SDS011;9168;51.194;6.840;2023-01-06T15:11:12;3.97;;;1.70;;
18082;SDS011;9168;51.194;6.840;2023-01-06T15:13:47;3.60;;;1.77;;
18082;SDS011;9168;51.194;6.840;2023-01-06T15:16:17;3.92;;;1.65;;
18082;SDS011;9168;51.194;6.840;2023-01-06T15:18:48;4.53;;;1.70;;
18082;SDS011;9168;51.194;6.840;2023-01-06T15:21:17;2.80;;;1.40;;
18082;SDS011;9168;51.194;6.840;2023-01-06T15:23:45;3.65;;;1.20;;
18082;SDS011;9168;51.194;6.840;2023-01-06T15:26:16;4.10;;;1.20;;
18082;SDS011;9168;51.194;6.840;2023-01-06T15:28:55;1.90;;;0.98;;
18082;SDS011;9168;51.194;6.840;2023-01-06T15:31:26;2.40;;;1.33;;
18082;SDS011;9168;51.194;6.840;2023-01-06T15:33:55;6.60;;;1.40;;
18082;SDS011;9168;51.194;6.840;2023-01-06T15:36:23;3.90;;;1.50;;
18082;SDS011;9168;51.194;6.840;2023-01-06T15:38:52;3.22;;;1.52;;
18082;SDS011;9168;51.194;6.840;2023-01-06T15:41:23;4.10;;;1.67;;
18082;SDS011;9168;51.194;6.840;2023-01-06T15:44:02;4.60;;;1.60;;
18082;SDS011;9168;51.194;6.840;2023-01-06T15:46:44;2.00;;;1.20;;